createdAt,value
2022-10-01T00:02:19.778Z,17.41
2022-10-01T00:07:23.146Z,15.84
2022-10-01T00:12:26.244Z,14.89
2022-10-01T00:17:30.155Z,15.17
2022-10-01T00:22:36.428Z,17.29
2022-10-01T00:27:40.053Z,18.30
2022-10-01T00:32:43.096Z,17.17
2022-10-01T00:37:51.188Z,15.64
2022-10-01T00:42:54.373Z,14.70
2022-10-01T00:48:03.404Z,15.08
2022-10-01T00:53:13.140Z,17.25
2022-10-01T00:58:16.387Z,18.34
2022-10-01T01:03:19.555Z,18.01
2022-10-01T01:08:22.836Z,16.27
2022-10-01T01:14:06.233Z,15.17
2022-10-01T01:19:50.828Z,15.56
2022-10-01T01:25:21.802Z,17.81
2022-10-01T01:30:24.962Z,18.14
2022-10-01T01:35:35.038Z,16.44
2022-10-01T01:40:41.767Z,15.26
2022-10-01T01:45:45.731Z,15.42
2022-10-01T01:50:59.300Z,17.56
2022-10-01T01:56:06.445Z,18.44
2022-10-01T02:01:40.398Z,16.95
2022-10-01T02:07:20.665Z,15.49
2022-10-01T02:12:35.722Z,14.60
2022-10-01T02:18:07.449Z,15.17
2022-10-01T02:23:18.092Z,17.51
2022-10-01T02:28:24.160Z,18.40
2022-10-01T02:33:36.544Z,17.02
2022-10-01T02:38:43.803Z,15.57
2022-10-01T02:44:11.967Z,14.67
2022-10-01T02:49:15.154Z,15.28
2022-10-01T02:54:42.691Z,17.46
2022-10-01T02:59:45.829Z,18.41
2022-10-01T03:04:48.985Z,17.03
2022-10-01T03:09:52.371Z,15.64
2022-10-01T03:14:55.568Z,14.77
2022-10-01T03:19:58.683Z,15.15
2022-10-01T03:25:01.986Z,17.34
2022-10-01T03:30:06.126Z,18.44
2022-10-01T03:35:10.042Z,17.79
2022-10-01T03:40:13.226Z,16.16
2022-10-01T03:45:16.446Z,15.15
2022-10-01T03:50:22.110Z,15.39
2022-10-01T03:55:25.606Z,17.48
2022-10-01T04:00:28.706Z,18.49
2022-10-01T04:05:31.781Z,17.65
2022-10-01T04:10:35.456Z,16.03
2022-10-01T04:15:38.275Z,15.01
2022-10-01T04:20:42.749Z,14.43
2022-10-01T04:25:45.940Z,16.27
2022-10-01T04:30:49.095Z,17.89
2022-10-01T04:35:52.240Z,18.60
2022-10-01T04:40:55.543Z,17.28
2022-10-01T04:45:59.031Z,15.83
2022-10-01T04:51:02.138Z,14.92
2022-10-01T04:56:05.582Z,15.15
2022-10-01T05:01:08.765Z,17.26
2022-10-01T05:06:11.939Z,18.36
2022-10-01T05:11:15.044Z,18.29
2022-10-01T05:16:18.337Z,16.47
2022-10-01T05:21:21.544Z,15.31
2022-10-01T05:26:25.402Z,15.45
2022-10-01T05:31:28.436Z,17.51
2022-10-01T05:36:31.789Z,18.61
2022-10-01T05:41:35.156Z,18.21
2022-10-01T05:46:38.341Z,16.45
2022-10-01T05:51:41.366Z,15.33
2022-10-01T05:56:44.478Z,15.53
2022-10-01T06:01:48.136Z,17.61
2022-10-01T06:06:51.148Z,18.77
2022-10-01T06:11:54.344Z,18.11
2022-10-01T06:16:57.496Z,16.48
2022-10-01T06:22:00.666Z,15.45
2022-10-01T06:27:03.992Z,15.70
2022-10-01T06:32:08.746Z,17.85
2022-10-01T06:37:11.848Z,18.97
2022-10-01T06:42:14.833Z,18.47
2022-10-01T06:47:18.079Z,16.72
2022-10-01T06:52:40.209Z,15.66
2022-10-01T06:57:43.575Z,16.04
2022-10-01T07:02:46.812Z,18.17
2022-10-01T07:07:50.479Z,19.20
2022-10-01T07:12:53.491Z,18.25
2022-10-01T07:17:56.626Z,16.68
2022-10-01T07:23:01.386Z,15.70
2022-10-01T07:28:08.275Z,15.96
2022-10-01T07:33:11.270Z,18.07
2022-10-01T07:38:14.323Z,19.12
2022-10-01T07:43:17.406Z,18.88
2022-10-01T07:48:20.516Z,17.15
2022-10-01T07:53:25.731Z,16.07
2022-10-01T07:58:28.796Z,15.34
2022-10-01T08:03:31.789Z,16.72
2022-10-01T08:08:34.879Z,18.58
2022-10-01T08:13:38.043Z,18.75
2022-10-01T08:18:41.241Z,17.07
2022-10-01T08:23:44.268Z,15.99
2022-10-01T08:28:47.243Z,16.17
2022-10-01T08:33:50.994Z,18.31
2022-10-01T08:38:54.083Z,19.16
2022-10-01T08:43:59.104Z,17.72
2022-10-01T08:49:07.159Z,16.42
2022-10-01T08:54:59.836Z,15.59
2022-10-01T09:00:08.703Z,16.35
2022-10-01T09:05:31.700Z,18.48
2022-10-01T09:10:37.486Z,18.92
2022-10-01T09:16:13.626Z,17.27
2022-10-01T09:21:40.015Z,16.04
2022-10-01T09:26:49.722Z,15.26
2022-10-01T09:31:55.339Z,15.88
2022-10-01T09:37:15.342Z,18.15
2022-10-01T09:42:18.667Z,19.32
2022-10-01T09:47:25.995Z,18.61
2022-10-01T09:52:40.070Z,17.04
2022-10-01T09:57:56.625Z,16.06
2022-10-01T10:03:01.083Z,15.32
2022-10-01T10:08:32.181Z,15.77
2022-10-01T10:13:50.697Z,18.17
2022-10-01T10:19:00.741Z,19.11
2022-10-01T10:24:24.736Z,17.78
2022-10-01T10:29:32.491Z,16.37
2022-10-01T10:34:42.702Z,15.62
2022-10-01T10:39:54.028Z,16.15
2022-10-01T10:45:03.762Z,18.48
2022-10-01T10:50:46.872Z,19.38
2022-10-01T10:56:02.494Z,17.84
2022-10-01T11:01:17.614Z,16.75
2022-10-01T11:06:21.020Z,16.09
2022-10-01T11:11:55.534Z,15.65
2022-10-01T11:17:42.360Z,15.29
2022-10-01T11:23:16.116Z,16.43
2022-10-01T11:28:46.721Z,18.91
2022-10-01T11:34:30.061Z,19.21
2022-10-01T11:39:35.963Z,17.52
2022-10-01T11:45:00.698Z,16.70
2022-10-01T11:50:13.663Z,16.10
2022-10-01T11:55:48.163Z,15.64
2022-10-01T12:01:38.803Z,16.56
2022-10-01T12:07:07.257Z,19.15
2022-10-01T12:12:44.878Z,19.79
2022-10-01T12:18:06.893Z,18.09
2022-10-01T12:23:19.772Z,17.12
2022-10-01T12:28:36.592Z,16.53
2022-10-01T12:34:28.752Z,16.08
2022-10-01T12:40:05.406Z,17.02
2022-10-01T12:45:28.523Z,19.36
2022-10-01T12:51:07.676Z,19.86
2022-10-01T12:56:33.813Z,18.23
2022-10-01T13:01:59.426Z,17.23
2022-10-01T13:07:27.021Z,16.62
2022-10-01T13:12:44.996Z,16.11
2022-10-01T13:18:06.359Z,16.91
2022-10-01T13:23:27.579Z,19.35
2022-10-01T13:29:00.803Z,20.28
2022-10-01T13:34:24.595Z,18.84
2022-10-01T13:39:38.860Z,17.63
2022-10-01T13:44:43.629Z,16.92
2022-10-01T13:50:07.680Z,16.39
2022-10-01T13:55:30.996Z,17.12
2022-10-01T14:00:34.368Z,19.48
2022-10-01T14:05:43.522Z,20.49
2022-10-01T14:11:39.280Z,19.58
2022-10-01T14:16:46.833Z,18.03
2022-10-01T14:22:27.282Z,17.27
2022-10-01T14:28:29.082Z,16.65
2022-10-01T14:34:05.965Z,17.64
2022-10-01T14:39:23.503Z,19.85
2022-10-01T14:44:50.575Z,20.04
2022-10-01T14:49:55.400Z,18.36
2022-10-01T14:55:13.969Z,17.37
2022-10-01T15:00:30.430Z,16.64
2022-10-01T15:05:36.038Z,17.63
2022-10-01T15:10:56.080Z,19.64
2022-10-01T15:16:00.074Z,20.54
2022-10-01T15:21:06.889Z,19.48
2022-10-01T15:26:18.725Z,17.96
2022-10-01T15:31:22.104Z,17.00
2022-10-01T15:36:25.093Z,17.31
2022-10-01T15:41:34.093Z,19.38
2022-10-01T15:46:37.445Z,20.46
2022-10-01T15:52:11.001Z,19.72
2022-10-01T15:57:23.706Z,17.99
2022-10-01T16:02:31.710Z,17.03
2022-10-01T16:07:35.617Z,17.29
2022-10-01T16:12:39.209Z,19.39
2022-10-01T16:17:53.719Z,20.44
2022-10-01T16:23:35.038Z,19.86
2022-10-01T16:28:38.522Z,18.16
2022-10-01T16:33:41.589Z,17.27
2022-10-01T16:38:44.583Z,17.53
2022-10-01T16:43:47.673Z,19.60
2022-10-01T16:48:54.087Z,20.62
2022-10-01T16:53:58.187Z,19.92
2022-10-01T16:59:01.282Z,18.39
2022-10-01T17:04:04.911Z,17.42
2022-10-01T17:09:08.956Z,17.67
2022-10-01T17:14:18.723Z,19.69
2022-10-01T17:19:22.269Z,20.69
2022-10-01T17:24:25.665Z,20.57
2022-10-01T17:29:31.043Z,18.90
2022-10-01T17:34:35.925Z,17.73
2022-10-01T17:39:39.877Z,16.96
2022-10-01T17:44:42.947Z,17.38
2022-10-01T17:49:46.146Z,19.48
2022-10-01T17:54:49.686Z,20.49
2022-10-01T17:59:52.560Z,20.09
2022-10-01T18:04:55.719Z,18.41
2022-10-01T18:09:58.779Z,17.37
2022-10-01T18:15:02.546Z,17.55
2022-10-01T18:20:08.171Z,19.61
2022-10-01T18:25:14.055Z,20.60
2022-10-01T18:30:18.456Z,19.78
2022-10-01T18:35:31.875Z,18.16
2022-10-01T18:40:44.145Z,17.17
2022-10-01T18:46:39.267Z,17.52
2022-10-01T18:52:05.931Z,19.80
2022-10-01T18:57:21.247Z,20.67
2022-10-01T19:02:32.169Z,19.57
2022-10-01T19:07:50.286Z,18.02
2022-10-01T19:13:23.232Z,17.08
2022-10-01T19:18:38.039Z,17.58
2022-10-01T19:23:55.972Z,19.65
2022-10-01T19:29:28.864Z,20.51
2022-10-01T19:34:50.241Z,19.17
2022-10-01T19:40:02.296Z,17.65
2022-10-01T19:45:29.196Z,16.77
2022-10-01T19:50:37.397Z,17.30
2022-10-01T19:55:40.434Z,19.37
2022-10-01T20:00:47.408Z,20.30
2022-10-01T20:06:09.812Z,19.88
2022-10-01T20:11:51.851Z,18.11
2022-10-01T20:16:54.975Z,16.97
2022-10-01T20:22:33.390Z,17.19
2022-10-01T20:27:55.371Z,19.40
2022-10-01T20:33:12.009Z,20.09
2022-10-01T20:38:49.937Z,18.50
2022-10-01T20:44:00.397Z,17.10
2022-10-01T20:49:27.431Z,17.22
2022-10-01T20:54:39.327Z,19.36
2022-10-01T20:59:51.606Z,20.08
2022-10-01T21:05:34.974Z,18.57
2022-10-01T21:10:43.490Z,17.10
2022-10-01T21:16:12.370Z,17.58
2022-10-01T21:21:55.063Z,19.44
2022-10-01T21:27:51.457Z,19.55
2022-10-01T21:33:10.840Z,17.32
2022-10-01T21:38:43.191Z,16.51
2022-10-01T21:43:57.279Z,18.44
2022-10-01T21:49:22.758Z,19.13
2022-10-01T21:55:06.104Z,17.42
2022-10-01T22:00:19.504Z,15.99
2022-10-01T22:05:42.461Z,17.40
2022-10-01T22:10:57.138Z,18.93
2022-10-01T22:16:07.815Z,18.73
2022-10-01T22:21:41.195Z,16.92
2022-10-01T22:26:59.827Z,15.71
2022-10-01T22:32:05.669Z,16.06
2022-10-01T22:37:18.693Z,18.19
2022-10-01T22:42:33.531Z,19.02
2022-10-01T22:47:57.622Z,17.43
2022-10-01T22:53:32.779Z,15.96
2022-10-01T22:58:42.218Z,15.76
2022-10-01T23:04:30.108Z,17.88
2022-10-01T23:09:40.022Z,18.87
2022-10-01T23:15:09.711Z,17.31
2022-10-01T23:20:30.576Z,15.80
2022-10-01T23:26:11.214Z,16.01
2022-10-01T23:31:35.367Z,18.24
2022-10-01T23:36:49.243Z,18.19
2022-10-01T23:42:34.986Z,16.35
2022-10-01T23:47:58.888Z,15.22
2022-10-01T23:53:31.532Z,16.99
2022-10-01T23:58:54.169Z,18.49
